createdAt,value
2023-04-05T00:01:33.772Z,94658.03
2023-04-05T00:04:00.876Z,94652.78
2023-04-05T00:06:29.093Z,94651.44
2023-04-05T00:09:05.100Z,94638.59
2023-04-05T00:11:33.383Z,94641.94
2023-04-05T00:14:01.062Z,94632.88
2023-04-05T00:16:29.010Z,94642.28
2023-04-05T00:18:57.302Z,94655.56
2023-04-05T00:21:24.654Z,94641.81
2023-04-05T00:23:53.600Z,94643.59
2023-04-05T00:26:21.309Z,94644.03
2023-04-05T00:28:52.705Z,94637.00
2023-04-05T00:31:19.182Z,94631.09
2023-04-05T00:33:46.188Z,94635.22
2023-04-05T00:36:14.859Z,94638.13
2023-04-05T00:38:42.126Z,94634.31
2023-04-05T00:41:09.096Z,94630.78
2023-04-05T00:43:35.591Z,94633.53
2023-04-05T00:46:02.518Z,94633.22
2023-04-05T00:48:29.569Z,94624.81
2023-04-05T00:50:57.507Z,94628.28
2023-04-05T00:53:24.284Z,94621.38
2023-04-05T00:55:54.326Z,94620.03
2023-04-05T00:58:24.743Z,94624.38
2023-04-05T01:00:51.370Z,94617.91
2023-04-05T01:03:20.182Z,94616.03
2023-04-05T01:06:00.676Z,94605.22
2023-04-05T01:08:43.737Z,94606.41
2023-04-05T01:11:12.048Z,94599.72
2023-04-05T01:13:39.408Z,94602.06
2023-04-05T01:16:06.272Z,94601.75
2023-04-05T01:18:36.376Z,94595.03
2023-04-05T01:21:23.061Z,94587.22
2023-04-05T01:24:09.859Z,94589.56
2023-04-05T01:27:01.454Z,94581.53
2023-04-05T01:29:37.366Z,94582.19
2023-04-05T01:32:10.822Z,94579.16
2023-04-05T01:34:44.950Z,94579.94
2023-04-05T01:37:18.086Z,94573.72
2023-04-05T01:39:47.427Z,94571.78
2023-04-05T01:42:13.976Z,94569.91
2023-04-05T01:44:40.516Z,94571.56
2023-04-05T01:47:06.932Z,94571.63
2023-04-05T01:49:33.335Z,94575.31
2023-04-05T01:51:59.743Z,94569.03
2023-04-05T01:54:27.022Z,94565.59
2023-04-05T01:56:53.513Z,94565.31
2023-04-05T01:59:19.953Z,94568.72
2023-04-05T02:01:46.393Z,94567.25
2023-04-05T02:04:12.847Z,94558.09
2023-04-05T02:06:41.065Z,94565.56
2023-04-05T02:09:07.601Z,94564.81
2023-04-05T02:11:34.051Z,94562.25
2023-04-05T02:14:00.960Z,94561.66
2023-04-05T02:16:27.659Z,94561.66
2023-04-05T02:18:57.836Z,94555.00
2023-04-05T02:21:26.014Z,94554.75
2023-04-05T02:23:53.319Z,94551.41
2023-04-05T02:26:19.780Z,94546.28
2023-04-05T02:28:47.144Z,94542.19
2023-04-05T02:31:14.500Z,94545.72
2023-04-05T02:33:42.014Z,94546.16
2023-04-05T02:36:10.792Z,94539.47
2023-04-05T02:38:37.980Z,94537.38
2023-04-05T02:41:07.794Z,94536.22
2023-04-05T02:43:35.253Z,94532.53
2023-04-05T02:46:01.830Z,94536.28
2023-04-05T02:48:28.425Z,94532.38
2023-04-05T02:50:55.968Z,94531.25
2023-04-05T02:53:22.427Z,94531.34
2023-04-05T02:55:56.880Z,94526.31
2023-04-05T02:58:24.324Z,94532.41
2023-04-05T03:00:51.928Z,94531.84
2023-04-05T03:03:24.552Z,94522.84
2023-04-05T03:06:00.332Z,94507.03
2023-04-05T03:08:29.310Z,94530.44
2023-04-05T03:11:01.644Z,94524.59
2023-04-05T03:13:28.210Z,94529.56
2023-04-05T03:15:55.825Z,94532.13
2023-04-05T03:18:26.624Z,94514.63
2023-04-05T03:20:59.214Z,94522.75
2023-04-05T03:23:28.550Z,94527.84
2023-04-05T03:26:00.468Z,94530.63
2023-04-05T03:28:32.331Z,94523.94
2023-04-05T03:31:02.703Z,94526.72
2023-04-05T03:33:29.528Z,94516.91
2023-04-05T03:35:56.174Z,94520.84
2023-04-05T03:38:22.736Z,94520.63
2023-04-05T03:41:09.455Z,94521.19
2023-04-05T03:43:36.624Z,94511.94
2023-04-05T03:46:03.170Z,94513.16
2023-04-05T03:48:30.109Z,94510.97
2023-04-05T03:50:56.667Z,94513.28
2023-04-05T03:53:23.413Z,94510.19
2023-04-05T03:55:54.177Z,94517.06
2023-04-05T03:58:27.654Z,94514.50
2023-04-05T04:00:56.724Z,94511.38
2023-04-05T04:03:25.986Z,94520.03
2023-04-05T04:05:52.708Z,94517.34
2023-04-05T04:08:20.196Z,94511.88
2023-04-05T04:10:46.892Z,94518.78
2023-04-05T04:13:23.228Z,94516.63
2023-04-05T04:16:03.921Z,94516.63
2023-04-05T04:18:49.376Z,94513.94
2023-04-05T04:21:39.433Z,94512.78
2023-04-05T04:24:20.540Z,94513.63
2023-04-05T04:27:06.798Z,94514.03
2023-04-05T04:30:04.982Z,94516.03
2023-04-05T04:32:55.325Z,94517.44
2023-04-05T04:35:38.957Z,94520.84
2023-04-05T04:38:20.581Z,94521.28
2023-04-05T04:41:11.368Z,94525.59
2023-04-05T04:43:43.812Z,94522.25
2023-04-05T04:46:34.595Z,94524.38
2023-04-05T04:49:07.049Z,94521.00
2023-04-05T04:51:33.919Z,94519.94
2023-04-05T04:54:00.703Z,94521.03
2023-04-05T04:56:27.414Z,94525.84
2023-04-05T04:58:56.603Z,94520.25
2023-04-05T05:01:25.123Z,94525.94
2023-04-05T05:03:52.403Z,94526.44
2023-04-05T05:06:27.185Z,94525.00
2023-04-05T05:08:54.012Z,94523.84
2023-04-05T05:11:20.814Z,94521.03
2023-04-05T05:13:50.522Z,94521.47
2023-04-05T05:16:23.437Z,94523.84
2023-04-05T05:18:52.963Z,94528.16
2023-04-05T05:21:20.927Z,94525.00
2023-04-05T05:23:53.437Z,94516.34
2023-04-05T05:26:19.869Z,94524.16
2023-04-05T05:28:48.663Z,94525.31
2023-04-05T05:31:17.557Z,94524.03
2023-04-05T05:33:47.760Z,94521.38
2023-04-05T05:36:14.142Z,94519.88
2023-04-05T05:38:42.988Z,94522.94
2023-04-05T05:41:09.403Z,94520.63
2023-04-05T05:43:35.886Z,94511.66
2023-04-05T05:46:02.484Z,94513.13
2023-04-05T05:48:28.972Z,94513.59
2023-04-05T05:50:56.314Z,94522.78
2023-04-05T05:53:22.954Z,94524.13
2023-04-05T05:55:49.328Z,94517.19
2023-04-05T05:58:15.912Z,94517.34
2023-04-05T06:00:42.703Z,94522.16
2023-04-05T06:03:09.920Z,94523.25
2023-04-05T06:05:36.581Z,94521.59
2023-04-05T06:08:03.913Z,94531.75
2023-04-05T06:10:31.101Z,94528.09
2023-04-05T06:12:57.513Z,94534.66
2023-04-05T06:15:23.954Z,94536.91
2023-04-05T06:17:50.401Z,94535.03
2023-04-05T06:20:16.910Z,94533.13
2023-04-05T06:22:44.427Z,94533.22
2023-04-05T06:25:12.877Z,94537.28
2023-04-05T06:27:39.494Z,94539.28
2023-04-05T06:30:06.780Z,94529.56
2023-04-05T06:32:33.242Z,94535.47
2023-04-05T06:35:00.853Z,94539.72
2023-04-05T06:37:27.247Z,94539.13
2023-04-05T06:39:53.789Z,94534.44
2023-04-05T06:42:20.302Z,94532.53
2023-04-05T06:44:53.288Z,94532.28
2023-04-05T06:47:19.689Z,94536.97
2023-04-05T06:49:46.085Z,94547.91
2023-04-05T06:52:12.480Z,94542.56
2023-04-05T06:54:39.526Z,94534.47
2023-04-05T06:57:06.049Z,94539.63
2023-04-05T06:59:32.626Z,94543.19
2023-04-05T07:01:59.107Z,94539.63
2023-04-05T07:04:26.645Z,94542.53
2023-04-05T07:06:53.852Z,94538.72
2023-04-05T07:09:21.259Z,94535.38
2023-04-05T07:11:47.659Z,94535.69
2023-04-05T07:14:14.039Z,94544.28
2023-04-05T07:16:40.466Z,94541.97
2023-04-05T07:19:07.250Z,94544.06
2023-04-05T07:21:33.703Z,94545.22
2023-04-05T07:24:01.889Z,94538.69
2023-04-05T07:26:28.955Z,94546.50
2023-04-05T07:28:55.427Z,94545.50
2023-04-05T07:31:21.829Z,94545.03
2023-04-05T07:33:48.712Z,94537.06
2023-04-05T07:36:15.249Z,94544.19
2023-04-05T07:38:41.822Z,94543.34
2023-04-05T07:41:08.221Z,94548.56
2023-04-05T07:43:34.620Z,94539.13
2023-04-05T07:46:03.083Z,94536.41
2023-04-05T07:48:30.544Z,94545.22
2023-04-05T07:50:57.581Z,94544.75
2023-04-05T07:53:24.051Z,94545.34
2023-04-05T07:55:50.431Z,94541.38
2023-04-05T07:58:16.829Z,94543.00
2023-04-05T08:00:43.473Z,94541.59
2023-04-05T08:03:10.135Z,94543.78
2023-04-05T08:05:36.589Z,94552.56
2023-04-05T08:08:03.183Z,94546.41
2023-04-05T08:10:29.553Z,94556.06
2023-04-05T08:12:56.028Z,94551.28
2023-04-05T08:15:22.533Z,94551.06
2023-04-05T08:17:49.040Z,94553.91
2023-04-05T08:20:15.741Z,94553.50
2023-04-05T08:22:42.202Z,94551.28
2023-04-05T08:25:09.190Z,94553.91
2023-04-05T08:27:35.653Z,94547.34
2023-04-05T08:30:02.070Z,94546.38
2023-04-05T08:32:28.487Z,94545.16
2023-04-05T08:34:54.931Z,94554.00
2023-04-05T08:37:21.336Z,94551.69
2023-04-05T08:39:47.825Z,94558.75
2023-04-05T08:42:23.483Z,94547.75
2023-04-05T08:44:52.467Z,94553.25
2023-04-05T08:47:19.592Z,94552.06
2023-04-05T08:49:47.347Z,94553.94
2023-04-05T08:52:13.870Z,94554.31
2023-04-05T08:54:40.396Z,94555.44
2023-04-05T08:57:10.367Z,94555.22
2023-04-05T08:59:40.969Z,94557.88
2023-04-05T09:02:16.211Z,94555.53
2023-04-05T09:04:45.055Z,94551.75
2023-04-05T09:07:13.657Z,94554.88
2023-04-05T09:09:44.156Z,94557.53
2023-04-05T09:12:11.220Z,94553.47
2023-04-05T09:14:38.517Z,94556.94
2023-04-05T09:17:06.420Z,94560.34
2023-04-05T09:19:32.985Z,94559.66
2023-04-05T09:22:06.985Z,94552.81
2023-04-05T09:24:43.875Z,94556.91
2023-04-05T09:27:11.668Z,94561.28
2023-04-05T09:29:40.463Z,94552.81
2023-04-05T09:32:10.599Z,94550.25
2023-04-05T09:34:38.153Z,94554.91
2023-04-05T09:37:20.521Z,94552.88
2023-04-05T09:39:49.703Z,94551.38
2023-04-05T09:42:19.289Z,94545.44
2023-04-05T09:45:02.527Z,94549.31
2023-04-05T09:47:36.524Z,94540.53
2023-04-05T09:50:15.570Z,94538.50
2023-04-05T09:52:43.408Z,94541.06
2023-04-05T09:55:10.872Z,94539.81
2023-04-05T09:57:39.566Z,94544.19
2023-04-05T10:00:17.041Z,94539.00
2023-04-05T10:02:43.668Z,94536.41
2023-04-05T10:05:13.597Z,94545.47
2023-04-05T10:07:43.160Z,94535.59
2023-04-05T10:10:12.292Z,94550.38
2023-04-05T10:12:41.399Z,94538.66
2023-04-05T10:15:11.295Z,94538.41
2023-04-05T10:18:03.500Z,94540.97
2023-04-05T10:20:32.991Z,94539.09
2023-04-05T10:23:10.437Z,94540.41
2023-04-05T10:25:53.240Z,94541.66
2023-04-05T10:28:34.530Z,94525.53
2023-04-05T10:31:37.193Z,94538.94
2023-04-05T10:34:06.721Z,94526.31
2023-04-05T10:36:46.677Z,94532.47
2023-04-05T10:39:25.492Z,94520.72
2023-04-05T10:42:27.554Z,94525.09
2023-04-05T10:45:02.415Z,94523.72
2023-04-05T10:47:31.956Z,94519.56
2023-04-05T10:50:03.592Z,94512.84
2023-04-05T10:52:30.656Z,94515.41
2023-04-05T10:54:59.865Z,94518.19
2023-04-05T10:57:27.235Z,94515.31
2023-04-05T10:59:54.771Z,94516.50
2023-04-05T11:02:22.008Z,94513.06
2023-04-05T11:04:56.881Z,94517.63
2023-04-05T11:07:23.857Z,94510.97
2023-04-05T11:10:02.316Z,94517.56
2023-04-05T11:12:47.004Z,94509.44
2023-04-05T11:15:25.429Z,94513.53
2023-04-05T11:18:17.022Z,94509.00
2023-04-05T11:20:45.052Z,94502.34
2023-04-05T11:23:13.448Z,94504.56
2023-04-05T11:25:41.339Z,94509.91
2023-04-05T11:28:11.842Z,94511.69
2023-04-05T11:30:48.976Z,94504.03
2023-04-05T11:33:37.954Z,94501.75
2023-04-05T11:36:04.883Z,94496.59
2023-04-05T11:38:31.446Z,94489.88
2023-04-05T11:41:25.688Z,94489.16
2023-04-05T11:43:53.645Z,94491.34
2023-04-05T11:46:21.286Z,94485.56
2023-04-05T11:48:51.059Z,94485.91
2023-04-05T11:51:20.833Z,94486.09
2023-04-05T11:53:47.424Z,94482.69
2023-04-05T11:56:15.968Z,94478.66
2023-04-05T11:58:42.742Z,94472.72
2023-04-05T12:01:09.635Z,94474.69
2023-04-05T12:03:37.471Z,94472.19
2023-04-05T12:06:06.211Z,94478.91
2023-04-05T12:08:49.968Z,94470.88
2023-04-05T12:11:23.658Z,94472.34
2023-04-05T12:13:54.222Z,94474.44
2023-04-05T12:16:20.924Z,94473.59
2023-04-05T12:18:57.640Z,94470.13
2023-04-05T12:21:26.198Z,94466.72
2023-04-05T12:23:53.778Z,94467.00
2023-04-05T12:26:21.215Z,94468.75
2023-04-05T12:28:58.640Z,94455.91
2023-04-05T12:31:44.560Z,94445.72
2023-04-05T12:34:12.871Z,94450.44
2023-04-05T12:36:43.751Z,94453.22
2023-04-05T12:39:10.493Z,94445.13
2023-04-05T12:41:37.430Z,94442.31
2023-04-05T12:44:15.664Z,94448.88
2023-04-05T12:46:45.910Z,94437.81
2023-04-05T12:49:16.694Z,94443.63
2023-04-05T12:51:47.461Z,94431.44
2023-04-05T12:54:15.183Z,94432.38
2023-04-05T12:56:42.310Z,94427.34
2023-04-05T12:59:08.811Z,94431.72
2023-04-05T13:01:35.558Z,94438.19
2023-04-05T13:04:14.694Z,94417.13
2023-04-05T13:06:42.253Z,94433.84
2023-04-05T13:09:08.791Z,94424.81
2023-04-05T13:11:35.199Z,94425.31
2023-04-05T13:14:01.630Z,94420.88
2023-04-05T13:16:28.091Z,94420.03
2023-04-05T13:18:54.560Z,94422.34
2023-04-05T13:21:21.123Z,94412.03
2023-04-05T13:23:47.515Z,94413.53
2023-04-05T13:26:13.930Z,94409.03
2023-04-05T13:28:40.459Z,94408.97
2023-04-05T13:31:08.275Z,94401.09
2023-04-05T13:33:34.915Z,94400.41
2023-04-05T13:36:01.410Z,94398.16
2023-04-05T13:38:27.885Z,94393.22
2023-04-05T13:40:54.406Z,94389.19
2023-04-05T13:43:20.826Z,94393.34
2023-04-05T13:45:47.195Z,94389.06
2023-04-05T13:48:13.583Z,94388.16
2023-04-05T13:50:40.410Z,94384.25
2023-04-05T13:53:07.436Z,94386.22
2023-04-05T13:55:33.894Z,94376.19
2023-04-05T13:58:00.476Z,94392.16
2023-04-05T14:00:26.873Z,94383.03
2023-04-05T14:02:53.416Z,94376.81
2023-04-05T14:05:19.891Z,94375.28
2023-04-05T14:07:46.649Z,94369.66
2023-04-05T14:10:13.220Z,94381.25
2023-04-05T14:12:39.702Z,94378.28
2023-04-05T14:15:06.671Z,94375.16
2023-04-05T14:17:33.270Z,94381.31
2023-04-05T14:19:59.736Z,94380.22
2023-04-05T14:22:26.266Z,94372.97
2023-04-05T14:24:52.716Z,94378.25
2023-04-05T14:27:22.137Z,94368.50
2023-04-05T14:29:48.648Z,94378.56
2023-04-05T14:32:15.760Z,94365.84
2023-04-05T14:34:42.160Z,94365.88
2023-04-05T14:37:08.709Z,94364.28
2023-04-05T14:39:35.505Z,94360.03
2023-04-05T14:42:02.457Z,94363.47
2023-04-05T14:44:29.086Z,94363.34
2023-04-05T14:46:55.577Z,94352.53
2023-04-05T14:49:22.030Z,94354.59
2023-04-05T14:51:48.523Z,94353.31
2023-04-05T14:54:14.952Z,94358.50
2023-04-05T14:56:41.402Z,94354.06
2023-04-05T14:59:07.884Z,94345.81
2023-04-05T15:01:34.746Z,94360.53
2023-04-05T15:04:01.313Z,94358.25
2023-04-05T15:06:28.605Z,94354.44
2023-04-05T15:08:54.991Z,94358.03
2023-04-05T15:11:21.656Z,94355.94
2023-04-05T15:13:48.106Z,94354.75
2023-04-05T15:16:14.593Z,94357.38
2023-04-05T15:18:41.107Z,94348.13
2023-04-05T15:21:07.585Z,94357.78
2023-04-05T15:23:34.225Z,94358.94
2023-04-05T15:26:00.831Z,94360.38
2023-04-05T15:28:27.266Z,94354.94
2023-04-05T15:30:53.745Z,94359.84
2023-04-05T15:33:20.791Z,94352.81
2023-04-05T15:35:47.332Z,94355.69
2023-04-05T15:38:13.758Z,94356.97
2023-04-05T15:40:40.246Z,94358.22
2023-04-05T15:43:06.740Z,94359.09
2023-04-05T15:45:33.137Z,94353.91
2023-04-05T15:47:59.661Z,94362.59
2023-04-05T15:50:26.245Z,94354.81
2023-04-05T15:52:52.753Z,94356.69
2023-04-05T15:55:19.345Z,94357.59
2023-04-05T15:57:45.984Z,94364.63
2023-04-05T16:00:13.098Z,94359.03
2023-04-05T16:02:39.691Z,94363.56
2023-04-05T16:05:06.472Z,94355.00
2023-04-05T16:07:32.930Z,94360.91
2023-04-05T16:09:59.320Z,94361.13
2023-04-05T16:12:25.895Z,94355.16
2023-04-05T16:14:52.339Z,94362.25
2023-04-05T16:17:18.794Z,94357.66
2023-04-05T16:19:45.195Z,94364.94
2023-04-05T16:22:11.686Z,94365.72
2023-04-05T16:24:39.135Z,94369.38
2023-04-05T16:27:06.180Z,94367.25
2023-04-05T16:29:33.084Z,94366.22
2023-04-05T16:31:59.660Z,94374.50
2023-04-05T16:34:26.419Z,94371.41
2023-04-05T16:36:52.874Z,94370.16
2023-04-05T16:39:19.329Z,94367.31
2023-04-05T16:41:45.870Z,94369.19
2023-04-05T16:44:12.305Z,94363.00
2023-04-05T16:46:39.730Z,94365.44
2023-04-05T16:49:06.286Z,94357.66
2023-04-05T16:51:36.255Z,94370.22
2023-04-05T16:54:02.742Z,94357.31
2023-04-05T16:56:29.196Z,94368.84
2023-04-05T16:58:57.400Z,94367.31
2023-04-05T17:01:23.950Z,94364.00
2023-04-05T17:03:50.413Z,94367.41
2023-04-05T17:06:16.825Z,94366.69
2023-04-05T17:08:43.269Z,94360.75
2023-04-05T17:11:10.067Z,94357.66
2023-04-05T17:13:36.590Z,94361.63
2023-04-05T17:16:03.116Z,94359.34
2023-04-05T17:18:29.590Z,94361.16
2023-04-05T17:20:56.271Z,94361.94
2023-04-05T17:23:23.965Z,94368.16
2023-04-05T17:25:50.444Z,94360.66
2023-04-05T17:28:16.824Z,94363.53
2023-04-05T17:30:43.531Z,94369.81
2023-04-05T17:33:09.984Z,94367.25
2023-04-05T17:35:36.658Z,94364.66
2023-04-05T17:38:03.458Z,94369.38
2023-04-05T17:40:31.000Z,94374.81
2023-04-05T17:42:57.493Z,94378.50
2023-04-05T17:45:23.915Z,94381.66
2023-04-05T17:47:50.409Z,94372.13
2023-04-05T17:50:17.062Z,94376.28
2023-04-05T17:52:43.543Z,94376.31
2023-04-05T17:55:10.330Z,94379.97
2023-04-05T17:57:36.783Z,94377.41
2023-04-05T18:00:04.101Z,94386.22
2023-04-05T18:02:31.417Z,94385.69
2023-04-05T18:04:57.844Z,94386.22
2023-04-05T18:07:24.238Z,94389.84
2023-04-05T18:09:50.725Z,94382.59
2023-04-05T18:12:17.169Z,94382.13
2023-04-05T18:14:43.562Z,94387.25
2023-04-05T18:17:10.023Z,94389.84
2023-04-05T18:19:36.651Z,94388.28
2023-04-05T18:22:03.068Z,94393.47
2023-04-05T18:24:29.717Z,94395.28
2023-04-05T18:26:56.202Z,94395.28
2023-04-05T18:29:28.032Z,94394.22
2023-04-05T18:31:55.746Z,94412.06
2023-04-05T18:34:23.783Z,94407.91
2023-04-05T18:36:50.992Z,94409.47
2023-04-05T18:39:19.380Z,94405.31
2023-04-05T18:41:45.833Z,94411.22
2023-04-05T18:44:12.933Z,94424.94
2023-04-05T18:46:39.384Z,94416.09
2023-04-05T18:49:06.084Z,94424.13
2023-04-05T18:51:33.183Z,94420.75
2023-04-05T18:54:00.021Z,94424.28
2023-04-05T18:56:27.482Z,94419.09
2023-04-05T18:58:53.912Z,94424.25
2023-04-05T19:01:20.691Z,94421.88
2023-04-05T19:03:47.985Z,94429.88
2023-04-05T19:06:14.867Z,94430.38
2023-04-05T19:08:41.473Z,94424.41
2023-04-05T19:11:08.435Z,94437.06
2023-04-05T19:13:34.838Z,94433.44
2023-04-05T19:16:01.668Z,94432.63
2023-04-05T19:18:29.696Z,94438.81
2023-04-05T19:20:58.604Z,94433.63
2023-04-05T19:23:26.368Z,94440.06
2023-04-05T19:25:56.537Z,94434.63
2023-04-05T19:28:27.058Z,94433.56
2023-04-05T19:30:54.543Z,94434.81
2023-04-05T19:33:21.852Z,94441.56
2023-04-05T19:35:48.808Z,94446.19
2023-04-05T19:38:15.330Z,94442.84
2023-04-05T19:40:42.429Z,94450.28
2023-04-05T19:43:09.979Z,94445.59
2023-04-05T19:45:37.028Z,94444.25
2023-04-05T19:48:25.916Z,94456.81
2023-04-05T19:50:54.340Z,94449.50
2023-04-05T19:53:44.872Z,94452.75
2023-04-05T19:56:18.564Z,94453.47
2023-04-05T19:58:46.766Z,94447.47
2023-04-05T20:01:35.356Z,94445.13
2023-04-05T20:04:15.427Z,94440.19
2023-04-05T20:06:43.848Z,94437.31
2023-04-05T20:09:12.635Z,94445.56
2023-04-05T20:11:39.283Z,94433.16
2023-04-05T20:14:08.488Z,94439.34
2023-04-05T20:16:37.525Z,94438.81
2023-04-05T20:19:06.803Z,94440.63
2023-04-05T20:21:33.742Z,94437.25
2023-04-05T20:24:01.440Z,94440.31
2023-04-05T20:26:31.632Z,94439.31
2023-04-05T20:29:01.079Z,94441.59
2023-04-05T20:31:30.730Z,94438.50
2023-04-05T20:34:11.630Z,94439.75
2023-04-05T20:36:46.854Z,94429.63
2023-04-05T20:39:13.259Z,94442.63
2023-04-05T20:41:40.139Z,94431.13
2023-04-05T20:44:06.977Z,94431.63
2023-04-05T20:46:33.824Z,94430.88
2023-04-05T20:49:00.705Z,94433.66
2023-04-05T20:51:27.619Z,94433.13
2023-04-05T20:53:55.419Z,94433.38
2023-04-05T20:56:21.836Z,94432.03
2023-04-05T20:58:48.275Z,94432.28
2023-04-05T21:01:14.739Z,94434.34
2023-04-05T21:03:42.520Z,94440.75
2023-04-05T21:06:10.214Z,94430.94
2023-04-05T21:08:37.853Z,94432.94
2023-04-05T21:11:04.717Z,94433.44
2023-04-05T21:13:31.248Z,94439.06
2023-04-05T21:15:58.295Z,94441.56
2023-04-05T21:18:25.405Z,94438.09
2023-04-05T21:20:52.788Z,94430.78
2023-04-05T21:23:21.344Z,94442.31
2023-04-05T21:25:47.957Z,94441.25
2023-04-05T21:28:18.446Z,94433.47
2023-04-05T21:30:45.840Z,94440.63
2023-04-05T21:33:12.807Z,94433.31
2023-04-05T21:35:39.872Z,94436.41
2023-04-05T21:38:06.618Z,94433.31
2023-04-05T21:40:33.410Z,94439.19
2023-04-05T21:43:00.151Z,94438.31
2023-04-05T21:45:27.026Z,94445.97
2023-04-05T21:47:53.907Z,94447.50
2023-04-05T21:50:21.093Z,94446.97
2023-04-05T21:52:47.745Z,94438.25
2023-04-05T21:55:14.192Z,94439.03
2023-04-05T21:57:40.710Z,94437.78
2023-04-05T22:00:11.729Z,94437.78
2023-04-05T22:02:41.219Z,94445.72
2023-04-05T22:05:08.198Z,94444.41
2023-04-05T22:07:35.737Z,94440.75
2023-04-05T22:10:02.688Z,94440.75
2023-04-05T22:12:29.157Z,94434.59
2023-04-05T22:14:55.618Z,94432.78
2023-04-05T22:17:22.092Z,94441.84
2023-04-05T22:19:48.505Z,94441.53
2023-04-05T22:22:16.025Z,94442.31
2023-04-05T22:24:42.523Z,94444.34
2023-04-05T22:27:09.332Z,94449.47
2023-04-05T22:29:36.053Z,94446.38
2023-04-05T22:32:02.594Z,94446.84
2023-04-05T22:34:29.125Z,94448.16
2023-04-05T22:36:55.767Z,94436.56
2023-04-05T22:39:22.248Z,94448.84
2023-04-05T22:41:48.672Z,94447.78
2023-04-05T22:44:15.140Z,94438.94
2023-04-05T22:46:41.589Z,94455.09
2023-04-05T22:49:08.684Z,94446.84
2023-04-05T22:51:35.197Z,94452.19
2023-04-05T22:54:01.650Z,94440.28
2023-04-05T22:56:28.013Z,94440.38
2023-04-05T22:58:54.476Z,94438.25
2023-04-05T23:01:20.993Z,94439.72
2023-04-05T23:03:47.470Z,94451.03
2023-04-05T23:06:14.756Z,94447.91
2023-04-05T23:08:41.257Z,94441.16
2023-04-05T23:11:07.672Z,94440.56
2023-04-05T23:13:34.114Z,94444.63
2023-04-05T23:16:00.597Z,94448.44
2023-04-05T23:18:27.183Z,94447.66
2023-04-05T23:20:53.606Z,94452.81
2023-04-05T23:23:20.181Z,94440.19
2023-04-05T23:25:46.584Z,94448.22
2023-04-05T23:28:13.106Z,94453.03
2023-04-05T23:30:39.514Z,94447.34
2023-04-05T23:33:06.064Z,94450.16
2023-04-05T23:35:32.562Z,94443.22
2023-04-05T23:37:59.008Z,94443.22
2023-04-05T23:40:25.630Z,94444.44
2023-04-05T23:42:52.085Z,94446.47
2023-04-05T23:45:18.460Z,94447.50
2023-04-05T23:47:44.937Z,94433.09
2023-04-05T23:50:11.454Z,94434.66
2023-04-05T23:52:37.908Z,94436.19
2023-04-05T23:55:04.819Z,94431.06
2023-04-05T23:57:31.274Z,94435.97
2023-04-05T23:59:57.698Z,94427.81
